Time;durP1;ratioP1;P1;durP2;ratioP2;P2;SDS_P1;SDS_P2;PMS_P1;PMS_P2;Temp;Humidity;BMP_temperature;BMP_pressure;BME280_temperature;BME280_humidity;BME280_pressure;Samples;Min_cycle;Max_cycle;Signal;HPM_P1;HPM_P2
2023/06/12 00:00:43;;;;;;;1.00;1.00;;;20.40;99.90;;;;;;4975890;28;20222;-65
2023/06/12 00:03:12;;;;;;;1.40;1.30;;;20.50;99.90;;;;;;4976671;28;20214;-65
2023/06/12 00:05:42;;;;;;;1.10;1.10;;;20.40;99.90;;;;;;4976397;28;20305;-64
2023/06/12 00:08:08;;;;;;;1.20;1.20;;;20.30;99.90;;;;;;4975095;28;20210;-65
2023/06/12 00:10:35;;;;;;;1.30;1.30;;;20.20;99.90;;;;;;4973917;28;20318;-65
2023/06/12 00:13:02;;;;;;;1.23;1.20;;;20.10;99.90;;;;;;4974003;28;20211;-67
2023/06/12 00:15:30;;;;;;;1.10;1.10;;;19.90;99.90;;;;;;4985605;28;20236;-65
2023/06/12 00:17:57;;;;;;;1.10;1.10;;;19.80;99.90;;;;;;4994177;28;20745;-64
2023/06/12 00:20:24;;;;;;;1.23;1.23;;;19.80;99.90;;;;;;4992763;28;20238;-65
2023/06/12 00:22:51;;;;;;;1.20;1.20;;;19.80;99.90;;;;;;4993160;28;20202;-65
2023/06/12 00:25:18;;;;;;;1.20;1.20;;;19.90;99.90;;;;;;4992893;28;20202;-66
2023/06/12 00:27:45;;;;;;;1.30;1.20;;;20.00;99.90;;;;;;4992929;28;20209;-66
2023/06/12 00:30:13;;;;;;;1.20;1.20;;;20.00;99.90;;;;;;4992653;28;20230;-65
2023/06/12 00:32:42;;;;;;;1.10;1.10;;;20.00;99.90;;;;;;4994659;28;20252;-65
2023/06/12 00:35:09;;;;;;;1.40;1.30;;;20.10;99.90;;;;;;4993134;28;20268;-66
2023/06/12 00:37:36;;;;;;;1.20;1.20;;;20.00;99.90;;;;;;4992316;28;20567;-64
2023/06/12 00:40:04;;;;;;;1.30;1.30;;;20.00;99.90;;;;;;4991612;28;20704;-66
2023/06/12 00:42:31;;;;;;;1.13;1.13;;;19.90;99.90;;;;;;4992720;28;20210;-65
2023/06/12 00:44:58;;;;;;;1.20;1.20;;;19.90;99.90;;;;;;4992658;28;20206;-66
2023/06/12 00:47:26;;;;;;;1.35;1.30;;;19.90;99.90;;;;;;4992446;28;20845;-65
2023/06/12 00:49:57;;;;;;;1.20;1.20;;;19.80;99.90;;;;;;4992385;28;20276;-65
2023/06/12 00:52:26;;;;;;;1.30;1.30;;;19.70;99.90;;;;;;4991819;28;20265;-64
2023/06/12 00:54:55;;;;;;;1.75;1.48;;;19.70;99.90;;;;;;4993368;28;20253;-65
2023/06/12 00:57:22;;;;;;;1.20;1.20;;;19.60;99.90;;;;;;4993541;28;20234;-65
2023/06/12 00:59:50;;;;;;;1.20;1.20;;;19.60;99.90;;;;;;4993218;28;20285;-65
2023/06/12 01:02:18;;;;;;;1.10;1.10;;;19.50;99.90;;;;;;4993441;28;20261;-66
2023/06/12 01:04:46;;;;;;;1.30;1.30;;;19.40;99.90;;;;;;4994400;28;20202;-65
2023/06/12 01:07:23;;;;;;;1.85;1.40;;;19.30;99.90;;;;;;4995974;28;20669;-67
2023/06/12 01:10:01;;;;;;;1.50;1.40;;;19.30;99.90;;;;;;4995535;28;20225;-64
2023/06/12 01:12:30;;;;;;;1.20;1.20;;;19.30;99.90;;;;;;4994861;28;20209;-66
2023/06/12 01:14:57;;;;;;;1.20;1.20;;;19.30;99.90;;;;;;4994331;28;20230;-65
2023/06/12 01:17:27;;;;;;;1.10;1.10;;;19.30;99.90;;;;;;4993240;28;20206;-66
2023/06/12 01:19:56;;;;;;;1.20;1.20;;;19.20;99.90;;;;;;4992658;28;20253;-65
2023/06/12 01:22:28;;;;;;;1.00;1.00;;;19.20;99.90;;;;;;4992934;28;20336;-65
2023/06/12 01:25:25;;;;;;;1.27;1.27;;;19.10;99.90;;;;;;4992849;28;20205;-64
2023/06/12 01:28:06;;;;;;;1.38;1.13;;;19.20;99.90;;;;;;4993295;28;20263;-65
2023/06/12 01:30:46;;;;;;;1.10;1.10;;;19.30;99.90;;;;;;4993424;28;20750;-65
2023/06/12 01:33:18;;;;;;;1.20;1.20;;;19.30;99.90;;;;;;4999074;28;20190;-71
2023/06/12 01:35:46;;;;;;;1.20;1.20;;;19.30;99.90;;;;;;5014886;28;20233;-64
2023/06/12 01:38:17;;;;;;;1.20;1.20;;;19.20;99.90;;;;;;5001926;28;20286;-64
2023/06/12 01:40:47;;;;;;;1.10;1.10;;;19.10;99.90;;;;;;5003925;28;20233;-65
2023/06/12 01:43:14;;;;;;;1.20;1.20;;;19.10;99.90;;;;;;5010355;28;20197;-65
2023/06/12 01:45:43;;;;;;;1.15;1.15;;;19.20;99.90;;;;;;5004960;28;20198;-66
2023/06/12 01:48:10;;;;;;;1.20;1.20;;;19.20;99.90;;;;;;4997119;28;20224;-65
2023/06/12 01:50:38;;;;;;;1.15;1.15;;;19.30;99.90;;;;;;4999649;28;20232;-66
2023/06/12 01:53:05;;;;;;;1.15;1.15;;;19.20;99.90;;;;;;5000437;28;20293;-64
2023/06/12 01:55:32;;;;;;;1.20;1.20;;;19.30;99.90;;;;;;5000035;28;20222;-66
2023/06/12 01:57:59;;;;;;;1.30;1.30;;;19.30;99.90;;;;;;4998588;28;20206;-66
2023/06/12 02:00:26;;;;;;;1.08;1.08;;;19.30;99.90;;;;;;4997490;28;20308;-66
2023/06/12 02:02:54;;;;;;;1.27;1.17;;;19.30;99.90;;;;;;4998775;28;20292;-64
2023/06/12 02:05:21;;;;;;;1.30;1.20;;;19.40;99.90;;;;;;4999163;28;20202;-66
2023/06/12 02:07:50;;;;;;;1.50;1.40;;;19.40;99.90;;;;;;4997504;28;20224;-65
2023/06/12 02:10:16;;;;;;;1.08;1.08;;;19.50;99.90;;;;;;4996246;28;20230;-67
2023/06/12 02:12:44;;;;;;;1.00;1.00;;;19.50;99.90;;;;;;4999120;28;20231;-64
2023/06/12 02:15:12;;;;;;;1.45;1.38;;;19.50;99.90;;;;;;5000490;28;20289;-66
2023/06/12 02:17:39;;;;;;;1.20;1.20;;;19.40;99.90;;;;;;4995893;28;20202;-65
2023/06/12 02:20:07;;;;;;;1.20;1.20;;;19.40;99.90;;;;;;4994315;28;20218;-65
2023/06/12 02:22:34;;;;;;;2.65;1.15;;;19.40;99.90;;;;;;4996702;28;20684;-66
2023/06/12 02:25:03;;;;;;;1.70;1.20;;;19.30;99.90;;;;;;4996737;28;20210;-64
2023/06/12 02:27:30;;;;;;;1.50;1.40;;;19.30;99.90;;;;;;4995864;28;20228;-64
2023/06/12 02:29:57;;;;;;;1.10;1.10;;;19.20;99.90;;;;;;4995393;28;20795;-66
2023/06/12 02:32:23;;;;;;;1.30;1.20;;;19.10;99.90;;;;;;4995828;28;20232;-66
2023/06/12 02:34:50;;;;;;;2.28;1.30;;;19.10;99.90;;;;;;4995627;28;20257;-66
2023/06/12 02:37:17;;;;;;;1.00;1.00;;;19.10;99.90;;;;;;4996185;28;20676;-65
2023/06/12 02:39:44;;;;;;;1.10;1.10;;;19.00;99.90;;;;;;4997399;28;20253;-64
2023/06/12 02:42:12;;;;;;;1.10;1.10;;;19.00;99.90;;;;;;5014707;28;20212;-67
2023/06/12 02:44:39;;;;;;;1.20;1.20;;;19.00;99.90;;;;;;5015161;28;20209;-65
2023/06/12 02:47:06;;;;;;;1.17;1.17;;;19.00;99.90;;;;;;5010309;28;20293;-66
2023/06/12 02:49:33;;;;;;;1.10;1.10;;;18.90;99.90;;;;;;4994661;28;20308;-65
2023/06/12 02:52:00;;;;;;;1.10;1.10;;;18.90;99.90;;;;;;4995042;28;20213;-64
2023/06/12 02:54:28;;;;;;;1.10;1.10;;;18.80;99.90;;;;;;4995186;28;20198;-65
2023/06/12 02:56:55;;;;;;;1.20;1.20;;;18.80;99.90;;;;;;4995011;28;20237;-65
2023/06/12 02:59:24;;;;;;;1.20;1.20;;;18.80;99.90;;;;;;4995551;28;20313;-65
2023/06/12 03:01:51;;;;;;;1.48;1.20;;;18.70;99.90;;;;;;4994857;28;20210;-67
2023/06/12 03:04:20;;;;;;;1.10;1.10;;;18.70;99.90;;;;;;4995025;28;20220;-64
2023/06/12 03:06:48;;;;;;;1.08;1.08;;;18.70;99.90;;;;;;4996946;28;20224;-66
2023/06/12 03:09:16;;;;;;;1.10;1.10;;;18.70;99.90;;;;;;4994594;28;20577;-65
2023/06/12 03:11:43;;;;;;;1.20;1.20;;;18.70;99.90;;;;;;4995935;28;20241;-65
2023/06/12 03:14:12;;;;;;;1.23;1.20;;;18.70;99.90;;;;;;4996891;28;20210;-66
2023/06/12 03:16:40;;;;;;;1.40;1.30;;;18.60;99.90;;;;;;5003402;28;20324;-64
2023/06/12 03:19:08;;;;;;;1.40;1.30;;;18.60;99.90;;;;;;4996434;28;20261;-65
2023/06/12 03:21:35;;;;;;;1.20;1.20;;;18.60;99.90;;;;;;4996609;28;20288;-64
2023/06/12 03:24:02;;;;;;;1.00;1.00;;;18.60;99.90;;;;;;5001041;28;20221;-64
2023/06/12 03:26:31;;;;;;;1.13;1.13;;;18.60;99.90;;;;;;4997078;28;20214;-66
2023/06/12 03:28:58;;;;;;;1.33;1.23;;;18.60;99.90;;;;;;4995341;28;20216;-65
2023/06/12 03:33:54;;;;;;;1.05;1.05;;;18.70;99.90;;;;;;5011187;28;20548;-62
2023/06/12 03:36:23;;;;;;;1.20;1.20;;;18.50;99.90;;;;;;5016522;28;20645;-64
2023/06/12 03:38:50;;;;;;;1.20;1.20;;;18.80;99.90;;;;;;5013410;28;20255;-62
2023/06/12 03:41:17;;;;;;;1.20;1.20;;;18.80;99.90;;;;;;5012038;28;20287;-65
2023/06/12 03:43:44;;;;;;;1.35;1.25;;;18.90;99.90;;;;;;5011504;28;20225;-61
2023/06/12 03:46:11;;;;;;;1.35;1.30;;;18.90;99.90;;;;;;5013321;28;20198;-64
2023/06/12 03:48:38;;;;;;;1.20;1.20;;;18.90;99.90;;;;;;5013191;28;20205;-63
2023/06/12 03:51:06;;;;;;;1.10;1.10;;;18.90;99.90;;;;;;5020676;28;20288;-62
2023/06/12 03:53:33;;;;;;;1.10;1.10;;;18.90;99.90;;;;;;5022160;28;20286;-62
2023/06/12 03:56:00;;;;;;;1.13;1.13;;;18.90;99.90;;;;;;5021522;28;20217;-63
2023/06/12 03:58:27;;;;;;;1.15;1.15;;;18.90;99.90;;;;;;5016518;28;20762;-63
2023/06/12 04:00:54;;;;;;;1.15;1.13;;;18.90;99.90;;;;;;5016682;28;20209;-62
2023/06/12 04:03:21;;;;;;;1.17;1.17;;;18.90;99.90;;;;;;5016489;28;20227;-62
2023/06/12 04:05:48;;;;;;;1.40;1.40;;;18.90;99.90;;;;;;5015100;28;20661;-61
2023/06/12 04:08:16;;;;;;;1.15;1.15;;;18.90;99.90;;;;;;5016352;28;20193;-62
2023/06/12 04:10:44;;;;;;;1.42;1.35;;;18.90;99.90;;;;;;5016174;28;20276;-61
2023/06/12 04:13:11;;;;;;;1.30;1.30;;;18.90;99.90;;;;;;5015538;28;20707;-61
2023/06/12 04:15:39;;;;;;;1.20;1.20;;;18.90;99.90;;;;;;5015115;28;20233;-63
2023/06/12 04:18:06;;;;;;;1.23;1.23;;;18.90;99.90;;;;;;5019139;28;20201;-62
2023/06/12 04:20:33;;;;;;;1.40;1.30;;;18.90;99.90;;;;;;5024426;28;20276;-63
2023/06/12 04:23:04;;;;;;;1.25;1.15;;;18.80;99.90;;;;;;5025869;28;20293;-61
2023/06/12 04:25:32;;;;;;;2.13;1.38;;;18.90;99.90;;;;;;5025088;28;20207;-62
2023/06/12 04:28:00;;;;;;;1.77;1.67;;;18.90;99.90;;;;;;5016006;28;20644;-63
2023/06/12 04:30:27;;;;;;;1.42;1.40;;;18.90;99.90;;;;;;5012456;28;20263;-62
2023/06/12 04:32:56;;;;;;;2.00;1.40;;;18.90;99.90;;;;;;5016335;28;20263;-60
2023/06/12 04:35:23;;;;;;;1.38;1.20;;;18.90;99.90;;;;;;5014221;28;20236;-62
2023/06/12 04:37:52;;;;;;;1.20;1.20;;;19.00;99.90;;;;;;5014101;28;20613;-62
2023/06/12 04:40:20;;;;;;;1.30;1.20;;;19.00;99.90;;;;;;5011547;28;20201;-62
2023/06/12 04:42:48;;;;;;;1.20;1.20;;;19.00;99.90;;;;;;5016727;28;20224;-61
2023/06/12 04:45:16;;;;;;;1.30;1.20;;;19.10;99.90;;;;;;5018644;28;20209;-63
2023/06/12 04:47:43;;;;;;;1.10;1.10;;;19.10;99.90;;;;;;5011704;28;20204;-63
2023/06/12 04:50:11;;;;;;;1.10;1.10;;;19.20;99.90;;;;;;5011143;28;20267;-61
2023/06/12 04:52:39;;;;;;;1.10;1.10;;;19.30;99.90;;;;;;5012143;28;20225;-61
2023/06/12 04:55:08;;;;;;;1.40;1.40;;;19.40;99.90;;;;;;5010045;28;20205;-63
2023/06/12 04:57:36;;;;;;;1.63;1.45;;;19.40;99.90;;;;;;5011590;28;20256;-61
2023/06/12 05:00:08;;;;;;;1.63;1.30;;;19.50;99.90;;;;;;5012288;28;20205;-61
2023/06/12 05:02:35;;;;;;;1.00;1.00;;;19.60;99.90;;;;;;5011931;28;20260;-62
2023/06/12 05:05:02;;;;;;;1.40;1.30;;;19.60;99.90;;;;;;5011470;28;20206;-61
2023/06/12 05:07:29;;;;;;;1.20;1.20;;;19.70;99.90;;;;;;5012252;28;20201;-62
2023/06/12 05:09:55;;;;;;;1.17;1.17;;;19.90;99.90;;;;;;5010313;28;20212;-63
2023/06/12 05:12:22;;;;;;;1.10;1.10;;;20.00;99.90;;;;;;5009209;28;20237;-62
2023/06/12 05:14:49;;;;;;;1.33;1.30;;;20.20;99.90;;;;;;5010518;28;21004;-61
2023/06/12 05:17:17;;;;;;;1.40;1.30;;;20.30;99.90;;;;;;5008126;28;20221;-62
2023/06/12 05:19:44;;;;;;;1.27;1.20;;;20.50;99.90;;;;;;5007692;28;20292;-62
2023/06/12 05:22:11;;;;;;;1.20;1.20;;;20.70;99.90;;;;;;5011048;28;20794;-62
2023/06/12 05:24:38;;;;;;;1.17;1.17;;;20.80;99.90;;;;;;5013974;28;20232;-62
2023/06/12 05:27:07;;;;;;;1.80;1.40;;;21.10;99.90;;;;;;5010115;28;20288;-63
2023/06/12 05:29:34;;;;;;;1.27;1.27;;;21.20;99.90;;;;;;5014092;28;20297;-62
2023/06/12 05:32:01;;;;;;;1.27;1.27;;;21.40;99.90;;;;;;5013874;28;20251;-61
2023/06/12 05:34:30;;;;;;;1.27;1.27;;;21.70;99.90;;;;;;5010073;28;20205;-63
2023/06/12 05:36:57;;;;;;;1.45;1.35;;;21.90;99.90;;;;;;5010664;28;20217;-62
2023/06/12 05:39:24;;;;;;;1.50;1.40;;;22.10;99.90;;;;;;5008448;28;20212;-62
2023/06/12 05:41:51;;;;;;;1.30;1.30;;;22.20;99.90;;;;;;5008399;28;20221;-63
2023/06/12 05:44:18;;;;;;;1.30;1.30;;;22.40;99.90;;;;;;5010608;28;20264;-65
2023/06/12 05:46:46;;;;;;;1.45;1.35;;;22.60;99.90;;;;;;5010113;28;20215;-63
2023/06/12 05:49:13;;;;;;;1.77;1.40;;;22.80;99.90;;;;;;5010628;28;20209;-63
2023/06/12 05:51:41;;;;;;;1.38;1.35;;;22.90;99.90;;;;;;5010862;28;20213;-63
2023/06/12 05:54:08;;;;;;;1.23;1.13;;;23.00;99.90;;;;;;5011285;28;20683;-64
2023/06/12 05:56:35;;;;;;;1.35;1.30;;;23.10;99.90;;;;;;5011168;28;20229;-64
2023/06/12 05:59:02;;;;;;;1.30;1.30;;;23.30;99.90;;;;;;5011201;28;20211;-64
2023/06/12 06:01:31;;;;;;;1.45;1.33;;;23.40;99.90;;;;;;5010424;28;20646;-64
2023/06/12 06:03:59;;;;;;;1.45;1.35;;;23.60;99.90;;;;;;5011092;28;20205;-64
2023/06/12 06:06:25;;;;;;;2.15;1.40;;;23.70;99.90;;;;;;5011085;28;20205;-65
2023/06/12 06:08:54;;;;;;;1.77;1.58;;;23.80;99.90;;;;;;5010542;28;20212;-63
2023/06/12 06:11:21;;;;;;;1.52;1.30;;;23.90;99.90;;;;;;5010144;28;20209;-62
2023/06/12 06:13:48;;;;;;;1.50;1.40;;;24.10;99.90;;;;;;5010518;28;20232;-64
2023/06/12 06:16:15;;;;;;;1.33;1.23;;;24.20;99.90;;;;;;5010595;28;20225;-64
2023/06/12 06:18:42;;;;;;;1.20;1.20;;;24.30;99.90;;;;;;5012852;28;20647;-63
2023/06/12 06:21:11;;;;;;;1.10;1.10;;;24.40;99.90;;;;;;5014345;28;20300;-65
2023/06/12 06:23:38;;;;;;;1.40;1.30;;;24.50;99.90;;;;;;5013906;28;20320;-64
2023/06/12 06:26:06;;;;;;;1.20;1.10;;;24.60;99.90;;;;;;5014471;28;20209;-64
2023/06/12 06:28:33;;;;;;;1.17;1.10;;;24.70;99.90;;;;;;5014037;28;20205;-65
2023/06/12 06:31:00;;;;;;;1.60;1.50;;;24.80;99.90;;;;;;5014025;28;20213;-64
2023/06/12 06:33:27;;;;;;;1.67;1.58;;;24.80;99.90;;;;;;5013583;28;20236;-64
2023/06/12 06:35:54;;;;;;;1.67;1.58;;;24.80;99.90;;;;;;5014320;28;20205;-64
2023/06/12 06:38:22;;;;;;;1.35;1.33;;;24.70;99.90;;;;;;5015173;28;20742;-64
2023/06/12 06:40:49;;;;;;;1.67;1.58;;;24.60;99.90;;;;;;5014182;28;20215;-64
2023/06/12 06:43:17;;;;;;;1.50;1.40;;;24.70;99.90;;;;;;5014091;28;20614;-64
2023/06/12 06:45:44;;;;;;;1.98;1.88;;;24.70;99.90;;;;;;5013356;28;20292;-63
2023/06/12 06:48:13;;;;;;;1.40;1.40;;;24.60;99.90;;;;;;5013875;28;20205;-64
2023/06/12 06:50:40;;;;;;;1.65;1.58;;;24.40;99.90;;;;;;5013361;28;20209;-64
2023/06/12 06:53:07;;;;;;;3.92;3.72;;;24.20;99.90;;;;;;5013911;28;20221;-63
2023/06/12 06:55:34;;;;;;;1.63;1.52;;;24.20;99.90;;;;;;5015174;28;20216;-64
2023/06/12 06:58:02;;;;;;;2.00;1.90;;;24.00;99.90;;;;;;5015992;28;20324;-63
2023/06/12 07:00:30;;;;;;;4.15;3.95;;;23.80;99.90;;;;;;5018089;28;20688;-64
2023/06/12 07:02:57;;;;;;;2.13;2.03;;;23.80;99.90;;;;;;5019337;28;20257;-64
2023/06/12 07:05:26;;;;;;;1.73;1.60;;;23.60;99.90;;;;;;5017615;28;20671;-64
2023/06/12 07:07:53;;;;;;;1.75;1.65;;;23.60;99.90;;;;;;5016340;28;20201;-65
2023/06/12 07:10:20;;;;;;;1.95;1.42;;;23.70;99.90;;;;;;5015944;28;20286;-65
2023/06/12 07:12:48;;;;;;;2.10;2.00;;;23.70;99.90;;;;;;5016231;28;20308;-63
2023/06/12 07:15:15;;;;;;;2.65;1.67;;;23.80;99.90;;;;;;5017297;28;20261;-63
2023/06/12 07:17:43;;;;;;;1.58;1.48;;;24.00;99.90;;;;;;5015556;28;20235;-63
2023/06/12 07:20:11;;;;;;;1.52;1.50;;;24.20;99.90;;;;;;5018188;28;20231;-64
2023/06/12 07:22:37;;;;;;;1.35;1.35;;;24.50;99.90;;;;;;5016268;28;20691;-63
2023/06/12 07:25:05;;;;;;;1.70;1.60;;;24.60;99.90;;;;;;5015360;28;20209;-63
2023/06/12 07:27:32;;;;;;;1.52;1.50;;;24.50;99.90;;;;;;5013895;28;20205;-62
2023/06/12 07:29:59;;;;;;;1.52;1.50;;;24.50;99.90;;;;;;5013249;28;20205;-63
2023/06/12 07:32:26;;;;;;;1.48;1.40;;;24.40;99.90;;;;;;5014015;28;20287;-62
2023/06/12 07:34:54;;;;;;;3.08;1.55;;;24.50;99.90;;;;;;5015470;28;20296;-63
2023/06/12 07:37:23;;;;;;;1.45;1.40;;;24.70;99.90;;;;;;5014091;28;20324;-63
2023/06/12 07:39:50;;;;;;;1.67;1.58;;;24.80;99.90;;;;;;5014378;28;20205;-64
2023/06/12 07:42:17;;;;;;;1.83;1.73;;;24.70;99.90;;;;;;5013916;28;20243;-64
2023/06/12 07:44:43;;;;;;;1.73;1.63;;;24.70;99.90;;;;;;5014384;28;20227;-64
2023/06/12 07:47:10;;;;;;;1.95;1.85;;;24.90;99.90;;;;;;5013673;28;20209;-64
2023/06/12 07:49:37;;;;;;;1.45;1.40;;;25.00;99.90;;;;;;5013098;28;20223;-64
2023/06/12 07:52:06;;;;;;;1.60;1.50;;;25.10;99.90;;;;;;5012954;28;20719;-63
2023/06/12 07:54:33;;;;;;;1.40;1.30;;;25.30;99.90;;;;;;5013431;28;20209;-63
2023/06/12 07:56:59;;;;;;;1.50;1.40;;;25.30;99.90;;;;;;5014095;28;20590;-63
2023/06/12 07:59:26;;;;;;;1.48;1.40;;;25.30;99.90;;;;;;5013021;28;20220;-64
2023/06/12 08:01:53;;;;;;;1.50;1.38;;;25.20;99.90;;;;;;5013596;28;20725;-64
2023/06/12 08:04:20;;;;;;;1.50;1.50;;;25.20;99.90;;;;;;5013999;28;20289;-64
2023/06/12 08:06:47;;;;;;;1.67;1.58;;;25.40;99.90;;;;;;5013355;28;20295;-63
2023/06/12 08:09:15;;;;;;;1.55;1.45;;;25.50;99.90;;;;;;5013454;28;20215;-63
2023/06/12 08:11:42;;;;;;;1.30;1.30;;;25.50;99.90;;;;;;5015875;28;20317;-63
2023/06/12 08:14:09;;;;;;;1.40;1.40;;;25.50;99.90;;;;;;5021454;28;20206;-63
2023/06/12 08:16:36;;;;;;;1.73;1.70;;;25.60;99.90;;;;;;5018777;28;20221;-62
2023/06/12 08:19:03;;;;;;;1.45;1.38;;;25.60;99.90;;;;;;5014442;28;20211;-64
2023/06/12 08:21:30;;;;;;;2.10;2.00;;;25.50;99.90;;;;;;5018390;28;20232;-64
2023/06/12 08:23:57;;;;;;;1.73;1.63;;;25.50;99.90;;;;;;5020349;28;20217;-63
2023/06/12 08:26:26;;;;;;;2.72;2.53;;;25.60;99.90;;;;;;5014914;28;20205;-64
2023/06/12 08:28:53;;;;;;;1.60;1.50;;;25.70;99.90;;;;;;5014901;28;20201;-64
2023/06/12 08:31:21;;;;;;;1.63;1.52;;;25.80;99.90;;;;;;5013560;28;20205;-63
2023/06/12 08:33:47;;;;;;;1.77;1.30;;;26.00;99.90;;;;;;5013055;28;20237;-64
2023/06/12 08:36:14;;;;;;;1.55;1.45;;;26.10;99.90;;;;;;5013360;28;20201;-65
2023/06/12 08:38:41;;;;;;;1.55;1.45;;;26.20;99.90;;;;;;5012773;28;20749;-64
2023/06/12 08:41:08;;;;;;;1.65;1.55;;;26.10;99.90;;;;;;5012311;28;20211;-63
2023/06/12 08:43:36;;;;;;;1.50;1.40;;;26.20;99.90;;;;;;5012885;28;20229;-64
2023/06/12 08:46:04;;;;;;;1.95;1.60;;;26.20;99.90;;;;;;5014485;28;20292;-64
2023/06/12 08:48:34;;;;;;;1.30;1.30;;;26.20;99.90;;;;;;5013886;28;20204;-64
2023/06/12 08:51:02;;;;;;;2.50;1.40;;;26.50;99.90;;;;;;5013072;28;20201;-62
2023/06/12 08:53:30;;;;;;;1.60;1.52;;;26.50;99.90;;;;;;5012936;28;20225;-64
2023/06/12 08:55:58;;;;;;;1.90;1.60;;;26.90;99.90;;;;;;5014633;28;20299;-63
2023/06/12 08:58:25;;;;;;;1.40;1.30;;;27.20;99.90;;;;;;5012922;28;20225;-63
2023/06/12 09:00:53;;;;;;;1.13;1.10;;;27.40;99.90;;;;;;5011678;28;20216;-64
2023/06/12 09:03:21;;;;;;;1.55;1.17;;;27.60;99.90;;;;;;5012394;28;20316;-64
2023/06/12 09:05:48;;;;;;;1.10;1.10;;;27.80;99.90;;;;;;5011981;28;20217;-64
2023/06/12 09:08:15;;;;;;;1.10;1.10;;;28.00;99.90;;;;;;5012257;28;20201;-64
2023/06/12 09:10:42;;;;;;;1.45;1.35;;;28.10;99.90;;;;;;5011725;28;20247;-63
2023/06/12 09:13:10;;;;;;;1.20;1.20;;;28.30;99.90;;;;;;5013769;28;20235;-64
2023/06/12 09:15:38;;;;;;;1.30;1.20;;;28.20;99.90;;;;;;5013195;28;20201;-63
2023/06/12 09:18:10;;;;;;;1.10;1.10;;;28.30;99.90;;;;;;5012177;28;20221;-63
2023/06/12 09:20:38;;;;;;;1.10;1.10;;;28.30;99.90;;;;;;5013118;28;20216;-63
2023/06/12 09:23:05;;;;;;;1.20;1.20;;;28.50;99.70;;;;;;5012481;28;20324;-64
2023/06/12 09:25:35;;;;;;;1.10;1.10;;;28.50;98.50;;;;;;5012785;28;20256;-64
2023/06/12 09:28:03;;;;;;;1.10;1.10;;;28.60;99.40;;;;;;5012602;28;20209;-63
2023/06/12 09:30:31;;;;;;;1.40;1.30;;;28.80;98.50;;;;;;5011046;28;20683;-63
2023/06/12 09:32:59;;;;;;;1.00;1.00;;;28.80;96.90;;;;;;5011304;28;20233;-63
2023/06/12 09:35:28;;;;;;;1.40;1.30;;;29.00;95.30;;;;;;5010936;28;20216;-63
2023/06/12 09:37:56;;;;;;;1.05;1.05;;;29.10;95.60;;;;;;5011178;28;20232;-65
2023/06/12 09:40:23;;;;;;;1.33;1.20;;;29.10;94.70;;;;;;5011433;28;20658;-65
2023/06/12 09:42:50;;;;;;;1.35;1.25;;;29.20;96.50;;;;;;5011379;28;20243;-64
2023/06/12 09:45:20;;;;;;;1.63;1.52;;;29.20;96.40;;;;;;5013015;28;20213;-64
2023/06/12 09:47:48;;;;;;;1.23;1.23;;;29.20;96.10;;;;;;5013810;28;20215;-63
2023/06/12 09:50:16;;;;;;;1.20;1.20;;;29.20;95.40;;;;;;5015150;28;20209;-64
2023/06/12 09:52:46;;;;;;;2.00;1.50;;;29.20;95.60;;;;;;5014137;28;20221;-63
2023/06/12 09:55:15;;;;;;;1.20;1.20;;;29.20;95.30;;;;;;5016627;28;20193;-64
2023/06/12 09:57:45;;;;;;;1.10;1.10;;;29.10;94.00;;;;;;5015550;28;20275;-65
2023/06/12 10:00:16;;;;;;;1.20;1.20;;;29.10;94.20;;;;;;5014607;28;20218;-63
2023/06/12 10:02:50;;;;;;;1.30;1.20;;;29.30;94.90;;;;;;5014831;28;20229;-64
2023/06/12 10:05:23;;;;;;;1.20;1.20;;;29.60;95.00;;;;;;5017296;28;20200;-65
2023/06/12 10:07:54;;;;;;;1.60;1.30;;;29.60;94.00;;;;;;5014414;28;20217;-63
2023/06/12 10:10:22;;;;;;;1.13;1.13;;;29.70;94.00;;;;;;5015939;28;20205;-65
2023/06/12 10:12:51;;;;;;;1.10;1.10;;;29.50;93.20;;;;;;5015247;28;20229;-63
2023/06/12 10:15:18;;;;;;;1.40;1.30;;;29.60;93.20;;;;;;5016034;28;20201;-64
2023/06/12 10:17:45;;;;;;;2.70;1.75;;;29.60;92.00;;;;;;5014787;28;20225;-64
2023/06/12 10:20:13;;;;;;;1.45;1.10;;;29.70;92.80;;;;;;5014542;28;20213;-64
2023/06/12 10:22:40;;;;;;;1.00;1.00;;;29.90;92.90;;;;;;5015346;28;20699;-64
2023/06/12 10:25:10;;;;;;;1.08;1.08;;;30.00;92.90;;;;;;5015305;28;20213;-63
2023/06/12 10:27:39;;;;;;;1.25;1.17;;;30.00;92.40;;;;;;5014569;28;20186;-63
2023/06/12 10:30:11;;;;;;;1.38;1.27;;;30.00;92.70;;;;;;5013609;28;20288;-63
2023/06/12 10:32:38;;;;;;;1.23;1.20;;;29.80;92.00;;;;;;5013992;28;20240;-64
2023/06/12 10:35:07;;;;;;;1.45;1.33;;;29.50;91.20;;;;;;5014198;28;20295;-64
2023/06/12 10:37:37;;;;;;;1.33;1.23;;;29.60;91.20;;;;;;5014411;28;20944;-63
2023/06/12 10:40:15;;;;;;;1.20;1.20;;;29.70;90.50;;;;;;5014007;28;20643;-63
2023/06/12 10:42:47;;;;;;;1.08;1.08;;;29.80;90.70;;;;;;5017529;28;20694;-63
2023/06/12 10:45:22;;;;;;;1.00;1.00;;;30.00;91.60;;;;;;5015069;28;20197;-63
2023/06/12 10:48:13;;;;;;;1.40;1.30;;;30.00;91.90;;;;;;5015945;28;20201;-64
2023/06/12 10:50:44;;;;;;;1.20;1.20;;;30.00;91.20;;;;;;5014238;28;20217;-64
2023/06/12 10:53:13;;;;;;;1.65;1.40;;;30.10;91.60;;;;;;5015139;28;20287;-65
2023/06/12 10:55:42;;;;;;;1.77;1.40;;;30.30;91.80;;;;;;5014265;28;20672;-63
2023/06/12 10:58:12;;;;;;;1.20;1.20;;;30.30;91.10;;;;;;5014304;28;20229;-63
2023/06/12 11:00:45;;;;;;;1.10;1.10;;;30.40;90.40;;;;;;5014094;28;20205;-63
2023/06/12 11:03:13;;;;;;;1.17;1.15;;;30.40;90.00;;;;;;5015006;28;20261;-63
2023/06/12 11:05:47;;;;;;;1.55;1.45;;;30.20;89.30;;;;;;5078000;22;20581;-62
2023/06/12 11:08:13;;;;;;;1.17;1.17;;;30.20;89.00;;;;;;5072524;28;20199;-62
2023/06/12 11:10:42;;;;;;;1.25;1.15;;;30.40;90.60;;;;;;5072422;28;20203;-63
2023/06/12 11:13:09;;;;;;;2.78;1.50;;;30.40;90.10;;;;;;5075140;28;20203;-63
2023/06/12 11:15:42;;;;;;;1.40;1.30;;;30.30;90.50;;;;;;5075731;28;20279;-63
2023/06/12 11:18:10;;;;;;;0.93;0.93;;;30.30;89.80;;;;;;5076901;28;20241;-62
2023/06/12 11:20:37;;;;;;;4.68;1.70;;;30.50;89.30;;;;;;5074864;28;20217;-62
2023/06/12 11:23:05;;;;;;;1.20;1.20;;;30.40;89.20;;;;;;5074176;28;20246;-63
2023/06/12 11:25:36;;;;;;;1.10;1.10;;;30.50;89.80;;;;;;5046731;28;20836;-62
2023/06/12 11:28:07;;;;;;;1.05;1.05;;;30.50;90.10;;;;;;5055375;28;20290;-62
2023/06/12 11:30:34;;;;;;;1.10;1.10;;;30.60;89.70;;;;;;5055181;28;20662;-63
2023/06/12 11:33:08;;;;;;;3.83;1.20;;;30.70;87.60;;;;;;5055034;28;20208;-63
2023/06/12 11:35:40;;;;;;;1.08;1.08;;;30.60;86.80;;;;;;5054916;28;20224;-62
2023/06/12 11:38:07;;;;;;;1.27;1.20;;;30.60;86.50;;;;;;5055545;28;20212;-64
2023/06/12 11:40:34;;;;;;;1.02;1.02;;;30.80;87.40;;;;;;5054652;28;20295;-64
2023/06/12 11:43:01;;;;;;;2.45;1.15;;;30.70;87.10;;;;;;5054670;28;20204;-63
2023/06/12 11:45:31;;;;;;;1.25;1.17;;;30.80;83.60;;;;;;5054607;28;20311;-63
2023/06/12 11:47:59;;;;;;;1.80;1.40;;;30.80;83.10;;;;;;5054152;28;20208;-62
2023/06/12 11:50:26;;;;;;;1.00;1.00;;;30.80;84.00;;;;;;5054140;28;20219;-62
2023/06/12 11:52:55;;;;;;;1.20;1.20;;;30.80;84.00;;;;;;5054541;28;20218;-64
2023/06/12 11:55:23;;;;;;;1.38;1.10;;;30.90;84.80;;;;;;5054377;28;20238;-63
2023/06/12 11:57:51;;;;;;;1.48;1.48;;;31.00;83.90;;;;;;5054794;28;20214;-63
2023/06/12 12:00:21;;;;;;;1.38;1.30;;;30.80;81.80;;;;;;5056667;28;20261;-63
2023/06/12 12:02:51;;;;;;;1.23;1.23;;;30.80;81.80;;;;;;5053672;28;20261;-63
2023/06/12 12:05:20;;;;;;;1.98;1.30;;;30.80;82.10;;;;;;5053582;28;20250;-62
2023/06/12 12:07:52;;;;;;;2.35;1.33;;;30.80;82.70;;;;;;5054201;28;20200;-62
2023/06/12 12:10:19;;;;;;;1.30;1.30;;;30.90;84.40;;;;;;5053535;28;20218;-62
2023/06/12 12:12:49;;;;;;;1.58;1.48;;;30.90;83.70;;;;;;5054027;28;20606;-63
2023/06/12 12:15:16;;;;;;;1.00;1.00;;;31.00;84.10;;;;;;5053120;28;20259;-62
2023/06/12 12:17:44;;;;;;;1.50;1.40;;;31.10;83.70;;;;;;5053113;28;20211;-62
2023/06/12 12:20:18;;;;;;;1.30;1.30;;;31.10;84.00;;;;;;5053213;28;20260;-62
2023/06/12 12:22:48;;;;;;;1.30;1.30;;;31.10;84.30;;;;;;5054095;28;20231;-63
2023/06/12 12:25:16;;;;;;;1.30;1.20;;;31.00;83.10;;;;;;5054021;28;20226;-62
2023/06/12 12:27:45;;;;;;;1.10;1.10;;;31.00;81.80;;;;;;5054290;28;20313;-62
2023/06/12 12:30:14;;;;;;;1.00;1.00;;;31.10;83.10;;;;;;5052389;28;20681;-62
2023/06/12 12:32:42;;;;;;;1.35;1.30;;;31.10;84.60;;;;;;5053309;28;20708;-63
2023/06/12 12:35:09;;;;;;;1.25;1.25;;;31.20;82.80;;;;;;5052694;28;20228;-64
2023/06/12 12:37:38;;;;;;;1.23;1.23;;;31.20;82.10;;;;;;5050724;28;20212;-63
2023/06/12 12:40:09;;;;;;;1.10;1.10;;;31.20;82.50;;;;;;5049299;28;20215;-63
2023/06/12 12:42:36;;;;;;;1.27;1.27;;;31.20;83.60;;;;;;5050453;28;20271;-63
2023/06/12 12:45:04;;;;;;;1.35;1.25;;;31.20;83.40;;;;;;5050292;28;20224;-62
2023/06/12 12:47:31;;;;;;;1.20;1.20;;;31.10;82.40;;;;;;5050485;28;20262;-61
2023/06/12 12:49:58;;;;;;;1.27;1.17;;;31.10;82.00;;;;;;5049963;28;20297;-63
2023/06/12 12:52:25;;;;;;;1.38;1.27;;;31.10;81.60;;;;;;5048464;28;20302;-63
2023/06/12 12:54:53;;;;;;;2.05;1.70;;;31.20;82.30;;;;;;5050238;28;20224;-63